sensor_id;sensor_type;location;lat;lon;timestamp;temperature;humidity
46754;DHT22;32500;50.620;3.400;2023-04-15T00:00:29;15.40;69.40
46754;DHT22;32500;50.620;3.400;2023-04-15T00:02:55;15.30;69.40
46754;DHT22;32500;50.620;3.400;2023-04-15T00:05:21;15.40;69.50
46754;DHT22;32500;50.620;3.400;2023-04-15T00:07:46;15.40;69.40
46754;DHT22;32500;50.620;3.400;2023-04-15T00:10:12;15.40;69.50
46754;DHT22;32500;50.620;3.400;2023-04-15T00:12:39;15.40;69.50
46754;DHT22;32500;50.620;3.400;2023-04-15T00:15:07;15.30;69.40
46754;DHT22;32500;50.620;3.400;2023-04-15T00:17:34;15.40;69.50
46754;DHT22;32500;50.620;3.400;2023-04-15T00:19:59;15.40;69.50
46754;DHT22;32500;50.620;3.400;2023-04-15T00:22:28;15.30;69.40
46754;DHT22;32500;50.620;3.400;2023-04-15T00:24:53;15.40;69.50
46754;DHT22;32500;50.620;3.400;2023-04-15T00:27:19;15.30;69.50
46754;DHT22;32500;50.620;3.400;2023-04-15T00:29:45;15.30;69.50
46754;DHT22;32500;50.620;3.400;2023-04-15T00:32:11;15.30;69.50
46754;DHT22;32500;50.620;3.400;2023-04-15T00:34:37;15.30;69.50
46754;DHT22;32500;50.620;3.400;2023-04-15T00:37:02;15.30;69.50
46754;DHT22;32500;50.620;3.400;2023-04-15T00:39:28;15.30;69.50
46754;DHT22;32500;50.620;3.400;2023-04-15T00:41:54;15.30;69.60
46754;DHT22;32500;50.620;3.400;2023-04-15T00:44:20;15.30;69.50
46754;DHT22;32500;50.620;3.400;2023-04-15T00:46:46;15.30;69.60
46754;DHT22;32500;50.620;3.400;2023-04-15T00:49:13;15.30;69.60
46754;DHT22;32500;50.620;3.400;2023-04-15T00:51:38;15.30;69.60
46754;DHT22;32500;50.620;3.400;2023-04-15T00:54:05;15.20;69.50
46754;DHT22;32500;50.620;3.400;2023-04-15T00:56:36;15.30;69.60
46754;DHT22;32500;50.620;3.400;2023-04-15T00:59:05;15.30;69.60
46754;DHT22;32500;50.620;3.400;2023-04-15T01:01:34;15.30;69.60
46754;DHT22;32500;50.620;3.400;2023-04-15T01:04:00;15.20;69.60
46754;DHT22;32500;50.620;3.400;2023-04-15T01:06:26;15.20;69.60
46754;DHT22;32500;50.620;3.400;2023-04-15T01:08:53;15.20;69.50
46754;DHT22;32500;50.620;3.400;2023-04-15T01:11:19;15.20;69.50
46754;DHT22;32500;50.620;3.400;2023-04-15T01:13:45;15.20;69.60
46754;DHT22;32500;50.620;3.400;2023-04-15T01:16:11;15.20;69.60
46754;DHT22;32500;50.620;3.400;2023-04-15T01:18:38;15.20;69.60
46754;DHT22;32500;50.620;3.400;2023-04-15T01:21:05;15.20;69.60
46754;DHT22;32500;50.620;3.400;2023-04-15T01:23:32;15.20;69.60
46754;DHT22;32500;50.620;3.400;2023-04-15T01:26:01;15.20;69.60
46754;DHT22;32500;50.620;3.400;2023-04-15T01:28:28;15.20;69.60
46754;DHT22;32500;50.620;3.400;2023-04-15T01:31:07;15.20;69.60
46754;DHT22;32500;50.620;3.400;2023-04-15T01:33:33;15.20;69.60
46754;DHT22;32500;50.620;3.400;2023-04-15T01:35:59;15.20;69.70
46754;DHT22;32500;50.620;3.400;2023-04-15T01:38:26;15.20;69.70
46754;DHT22;32500;50.620;3.400;2023-04-15T01:40:52;15.20;69.70
46754;DHT22;32500;50.620;3.400;2023-04-15T01:43:18;15.20;69.70
46754;DHT22;32500;50.620;3.400;2023-04-15T01:45:44;15.20;69.70
46754;DHT22;32500;50.620;3.400;2023-04-15T01:48:10;15.20;69.70
46754;DHT22;32500;50.620;3.400;2023-04-15T01:50:36;15.10;69.70
46754;DHT22;32500;50.620;3.400;2023-04-15T01:53:03;15.10;69.60
46754;DHT22;32500;50.620;3.400;2023-04-15T01:55:28;15.10;69.70
46754;DHT22;32500;50.620;3.400;2023-04-15T01:57:55;15.10;69.70
46754;DHT22;32500;50.620;3.400;2023-04-15T02:00:21;15.10;69.70
46754;DHT22;32500;50.620;3.400;2023-04-15T02:02:47;15.10;69.70
46754;DHT22;32500;50.620;3.400;2023-04-15T02:05:13;15.10;69.70
46754;DHT22;32500;50.620;3.400;2023-04-15T02:07:44;15.10;69.70
46754;DHT22;32500;50.620;3.400;2023-04-15T02:10:10;15.10;69.70
46754;DHT22;32500;50.620;3.400;2023-04-15T02:12:37;15.10;69.70
46754;DHT22;32500;50.620;3.400;2023-04-15T02:15:04;15.10;69.70
46754;DHT22;32500;50.620;3.400;2023-04-15T02:17:29;15.10;69.70
46754;DHT22;32500;50.620;3.400;2023-04-15T02:19:59;15.10;69.80
46754;DHT22;32500;50.620;3.400;2023-04-15T02:22:25;15.10;69.70
46754;DHT22;32500;50.620;3.400;2023-04-15T02:24:51;15.10;70.00
46754;DHT22;32500;50.620;3.400;2023-04-15T02:27:16;15.10;69.90
46754;DHT22;32500;50.620;3.400;2023-04-15T02:29:43;15.10;69.80
46754;DHT22;32500;50.620;3.400;2023-04-15T02:32:10;15.00;69.70
46754;DHT22;32500;50.620;3.400;2023-04-15T02:34:36;15.00;69.70
46754;DHT22;32500;50.620;3.400;2023-04-15T02:37:06;15.10;69.80
46754;DHT22;32500;50.620;3.400;2023-04-15T02:39:32;15.00;70.50
46754;DHT22;32500;50.620;3.400;2023-04-15T02:41:58;15.00;69.80
46754;DHT22;32500;50.620;3.400;2023-04-15T02:44:25;15.00;69.80
46754;DHT22;32500;50.620;3.400;2023-04-15T02:46:52;15.00;69.80
46754;DHT22;32500;50.620;3.400;2023-04-15T02:49:19;15.00;69.80
46754;DHT22;32500;50.620;3.400;2023-04-15T02:51:45;15.00;69.80
46754;DHT22;32500;50.620;3.400;2023-04-15T02:54:15;15.00;69.80
46754;DHT22;32500;50.620;3.400;2023-04-15T02:56:41;15.00;69.80
46754;DHT22;32500;50.620;3.400;2023-04-15T02:59:07;15.00;69.90
46754;DHT22;32500;50.620;3.400;2023-04-15T03:01:32;15.00;69.90
46754;DHT22;32500;50.620;3.400;2023-04-15T03:03:58;15.00;69.90
46754;DHT22;32500;50.620;3.400;2023-04-15T03:06:24;15.00;69.90
46754;DHT22;32500;50.620;3.400;2023-04-15T03:08:49;15.00;69.90
46754;DHT22;32500;50.620;3.400;2023-04-15T03:11:15;15.00;69.90
46754;DHT22;32500;50.620;3.400;2023-04-15T03:13:42;15.00;69.90
46754;DHT22;32500;50.620;3.400;2023-04-15T03:16:08;15.00;70.60
46754;DHT22;32500;50.620;3.400;2023-04-15T03:18:34;15.00;69.90
46754;DHT22;32500;50.620;3.400;2023-04-15T03:21:00;14.90;69.90
46754;DHT22;32500;50.620;3.400;2023-04-15T03:23:26;14.90;70.00
46754;DHT22;32500;50.620;3.400;2023-04-15T03:25:52;15.00;69.90
46754;DHT22;32500;50.620;3.400;2023-04-15T03:28:20;14.90;69.90
46754;DHT22;32500;50.620;3.400;2023-04-15T03:30:46;14.90;70.00
46754;DHT22;32500;50.620;3.400;2023-04-15T03:33:11;14.90;70.00
46754;DHT22;32500;50.620;3.400;2023-04-15T03:35:37;14.90;70.00
46754;DHT22;32500;50.620;3.400;2023-04-15T03:38:03;14.90;70.00
46754;DHT22;32500;50.620;3.400;2023-04-15T03:40:28;14.90;69.90
46754;DHT22;32500;50.620;3.400;2023-04-15T03:42:54;14.90;70.00
46754;DHT22;32500;50.620;3.400;2023-04-15T03:45:20;14.90;70.00
46754;DHT22;32500;50.620;3.400;2023-04-15T03:47:45;14.90;70.00
46754;DHT22;32500;50.620;3.400;2023-04-15T03:50:11;14.90;69.90
46754;DHT22;32500;50.620;3.400;2023-04-15T03:52:37;14.90;70.10
46754;DHT22;32500;50.620;3.400;2023-04-15T03:55:03;14.90;70.00
46754;DHT22;32500;50.620;3.400;2023-04-15T03:57:28;14.90;70.00
46754;DHT22;32500;50.620;3.400;2023-04-15T03:59:54;14.90;70.00
46754;DHT22;32500;50.620;3.400;2023-04-15T04:02:20;14.80;70.60
46754;DHT22;32500;50.620;3.400;2023-04-15T04:04:47;14.90;70.00
46754;DHT22;32500;50.620;3.400;2023-04-15T04:07:16;14.90;70.10
46754;DHT22;32500;50.620;3.400;2023-04-15T04:09:42;14.80;70.00
46754;DHT22;32500;50.620;3.400;2023-04-15T04:12:08;14.80;70.00
46754;DHT22;32500;50.620;3.400;2023-04-15T04:14:33;14.80;70.00
46754;DHT22;32500;50.620;3.400;2023-04-15T04:16:59;14.80;70.00
46754;DHT22;32500;50.620;3.400;2023-04-15T04:19:25;14.80;70.10
46754;DHT22;32500;50.620;3.400;2023-04-15T04:21:51;14.80;70.20
46754;DHT22;32500;50.620;3.400;2023-04-15T04:24:17;14.80;70.10
46754;DHT22;32500;50.620;3.400;2023-04-15T04:26:42;14.80;70.10
46754;DHT22;32500;50.620;3.400;2023-04-15T04:29:08;14.80;70.10
46754;DHT22;32500;50.620;3.400;2023-04-15T04:31:34;14.80;70.10
46754;DHT22;32500;50.620;3.400;2023-04-15T04:34:00;14.80;70.10
46754;DHT22;32500;50.620;3.400;2023-04-15T04:36:25;14.80;70.00
46754;DHT22;32500;50.620;3.400;2023-04-15T04:38:51;14.80;70.20
46754;DHT22;32500;50.620;3.400;2023-04-15T04:41:17;14.80;70.20
46754;DHT22;32500;50.620;3.400;2023-04-15T04:43:42;14.80;70.20
46754;DHT22;32500;50.620;3.400;2023-04-15T04:46:08;14.80;70.20
46754;DHT22;32500;50.620;3.400;2023-04-15T04:48:34;14.70;70.20
46754;DHT22;32500;50.620;3.400;2023-04-15T04:51:00;14.80;70.30
46754;DHT22;32500;50.620;3.400;2023-04-15T04:53:26;14.80;70.30
46754;DHT22;32500;50.620;3.400;2023-04-15T04:55:52;14.70;70.40
46754;DHT22;32500;50.620;3.400;2023-04-15T04:58:18;14.70;70.40
46754;DHT22;32500;50.620;3.400;2023-04-15T05:00:44;14.70;70.50
46754;DHT22;32500;50.620;3.400;2023-04-15T05:03:09;14.70;70.70
46754;DHT22;32500;50.620;3.400;2023-04-15T05:05:35;14.70;70.70
46754;DHT22;32500;50.620;3.400;2023-04-15T05:08:04;14.70;70.70
46754;DHT22;32500;50.620;3.400;2023-04-15T05:10:30;14.70;70.60
46754;DHT22;32500;50.620;3.400;2023-04-15T05:12:56;14.70;70.70
46754;DHT22;32500;50.620;3.400;2023-04-15T05:15:22;14.70;70.70
46754;DHT22;32500;50.620;3.400;2023-04-15T05:17:47;14.70;70.70
46754;DHT22;32500;50.620;3.400;2023-04-15T05:20:13;14.70;70.70
46754;DHT22;32500;50.620;3.400;2023-04-15T05:22:39;14.70;70.70
46754;DHT22;32500;50.620;3.400;2023-04-15T05:25:04;14.70;70.80
46754;DHT22;32500;50.620;3.400;2023-04-15T05:27:30;14.70;70.90
46754;DHT22;32500;50.620;3.400;2023-04-15T05:29:56;14.70;71.00
46754;DHT22;32500;50.620;3.400;2023-04-15T05:32:21;14.70;70.80
46754;DHT22;32500;50.620;3.400;2023-04-15T05:34:47;14.70;70.90
46754;DHT22;32500;50.620;3.400;2023-04-15T05:37:13;14.70;71.00
46754;DHT22;32500;50.620;3.400;2023-04-15T05:39:39;14.70;70.90
46754;DHT22;32500;50.620;3.400;2023-04-15T05:42:04;14.70;71.00
46754;DHT22;32500;50.620;3.400;2023-04-15T05:44:30;14.70;71.00
46754;DHT22;32500;50.620;3.400;2023-04-15T05:46:56;14.60;70.90
46754;DHT22;32500;50.620;3.400;2023-04-15T05:49:22;14.70;71.00
46754;DHT22;32500;50.620;3.400;2023-04-15T05:51:48;14.60;70.90
46754;DHT22;32500;50.620;3.400;2023-04-15T05:54:14;14.70;71.10
46754;DHT22;32500;50.620;3.400;2023-04-15T05:56:40;14.60;71.00
46754;DHT22;32500;50.620;3.400;2023-04-15T05:59:05;14.60;70.90
46754;DHT22;32500;50.620;3.400;2023-04-15T06:01:32;14.60;71.10
46754;DHT22;32500;50.620;3.400;2023-04-15T06:03:58;14.70;71.10
46754;DHT22;32500;50.620;3.400;2023-04-15T06:06:24;14.60;71.10
46754;DHT22;32500;50.620;3.400;2023-04-15T06:08:51;14.60;71.10
46754;DHT22;32500;50.620;3.400;2023-04-15T06:11:19;14.70;71.20
46754;DHT22;32500;50.620;3.400;2023-04-15T06:13:45;14.60;71.20
46754;DHT22;32500;50.620;3.400;2023-04-15T06:16:11;14.60;71.10
46754;DHT22;32500;50.620;3.400;2023-04-15T06:18:37;14.60;71.10
46754;DHT22;32500;50.620;3.400;2023-04-15T06:21:03;14.60;71.20
46754;DHT22;32500;50.620;3.400;2023-04-15T06:23:29;14.70;71.30
46754;DHT22;32500;50.620;3.400;2023-04-15T06:25:54;14.60;71.20
46754;DHT22;32500;50.620;3.400;2023-04-15T06:28:20;14.60;71.30
46754;DHT22;32500;50.620;3.400;2023-04-15T06:30:46;14.60;71.20
46754;DHT22;32500;50.620;3.400;2023-04-15T06:33:12;14.60;71.20
46754;DHT22;32500;50.620;3.400;2023-04-15T06:35:38;14.60;71.20
46754;DHT22;32500;50.620;3.400;2023-04-15T06:38:04;14.60;71.30
46754;DHT22;32500;50.620;3.400;2023-04-15T06:40:30;14.60;71.20
46754;DHT22;32500;50.620;3.400;2023-04-15T06:42:56;14.60;71.20
46754;DHT22;32500;50.620;3.400;2023-04-15T06:45:21;14.60;71.40
46754;DHT22;32500;50.620;3.400;2023-04-15T06:47:47;14.60;71.30
46754;DHT22;32500;50.620;3.400;2023-04-15T06:50:12;14.60;71.30
46754;DHT22;32500;50.620;3.400;2023-04-15T06:52:39;14.60;71.30
46754;DHT22;32500;50.620;3.400;2023-04-15T06:55:05;14.60;71.40
46754;DHT22;32500;50.620;3.400;2023-04-15T06:57:32;14.60;71.50
46754;DHT22;32500;50.620;3.400;2023-04-15T06:59:57;14.60;71.20
46754;DHT22;32500;50.620;3.400;2023-04-15T07:02:23;14.60;71.30
46754;DHT22;32500;50.620;3.400;2023-04-15T07:04:49;14.60;71.40
46754;DHT22;32500;50.620;3.400;2023-04-15T07:07:15;14.60;71.50
46754;DHT22;32500;50.620;3.400;2023-04-15T07:09:42;14.60;71.50
46754;DHT22;32500;50.620;3.400;2023-04-15T07:12:07;14.60;71.50
46754;DHT22;32500;50.620;3.400;2023-04-15T07:14:33;14.60;71.40
46754;DHT22;32500;50.620;3.400;2023-04-15T07:16:59;14.60;71.40
46754;DHT22;32500;50.620;3.400;2023-04-15T07:19:25;14.60;71.40
46754;DHT22;32500;50.620;3.400;2023-04-15T07:21:51;14.60;71.50
46754;DHT22;32500;50.620;3.400;2023-04-15T07:24:16;14.60;71.50
46754;DHT22;32500;50.620;3.400;2023-04-15T07:26:44;14.60;71.50
46754;DHT22;32500;50.620;3.400;2023-04-15T07:29:11;14.60;71.50
46754;DHT22;32500;50.620;3.400;2023-04-15T07:31:36;14.60;71.50
46754;DHT22;32500;50.620;3.400;2023-04-15T07:34:03;14.60;71.60
46754;DHT22;32500;50.620;3.400;2023-04-15T07:36:29;14.60;71.60
46754;DHT22;32500;50.620;3.400;2023-04-15T07:38:55;14.60;71.60
46754;DHT22;32500;50.620;3.400;2023-04-15T07:41:22;14.60;71.60
46754;DHT22;32500;50.620;3.400;2023-04-15T07:43:48;14.60;71.60
46754;DHT22;32500;50.620;3.400;2023-04-15T07:46:14;14.60;71.50
46754;DHT22;32500;50.620;3.400;2023-04-15T07:48:40;14.60;71.60
46754;DHT22;32500;50.620;3.400;2023-04-15T07:51:07;14.60;71.50
46754;DHT22;32500;50.620;3.400;2023-04-15T07:53:33;14.60;71.50
46754;DHT22;32500;50.620;3.400;2023-04-15T07:55:58;14.70;71.60
46754;DHT22;32500;50.620;3.400;2023-04-15T07:58:24;14.70;71.60
46754;DHT22;32500;50.620;3.400;2023-04-15T08:00:50;14.60;71.50
46754;DHT22;32500;50.620;3.400;2023-04-15T08:03:16;14.70;71.60
46754;DHT22;32500;50.620;3.400;2023-04-15T08:05:42;14.70;71.50
46754;DHT22;32500;50.620;3.400;2023-04-15T08:08:07;14.60;71.50
46754;DHT22;32500;50.620;3.400;2023-04-15T08:10:33;14.60;71.50
46754;DHT22;32500;50.620;3.400;2023-04-15T08:12:59;14.70;71.60
46754;DHT22;32500;50.620;3.400;2023-04-15T08:15:25;14.70;71.60
46754;DHT22;32500;50.620;3.400;2023-04-15T08:17:51;14.70;71.60
46754;DHT22;32500;50.620;3.400;2023-04-15T08:20:17;14.70;71.30
46754;DHT22;32500;50.620;3.400;2023-04-15T08:22:43;14.70;71.40
46754;DHT22;32500;50.620;3.400;2023-04-15T08:25:09;14.70;71.20
46754;DHT22;32500;50.620;3.400;2023-04-15T08:27:35;14.70;71.40
46754;DHT22;32500;50.620;3.400;2023-04-15T08:30:01;14.70;71.50
46754;DHT22;32500;50.620;3.400;2023-04-15T08:32:26;14.70;71.50
46754;DHT22;32500;50.620;3.400;2023-04-15T08:34:52;14.70;71.30
46754;DHT22;32500;50.620;3.400;2023-04-15T08:37:19;14.70;71.30
46754;DHT22;32500;50.620;3.400;2023-04-15T08:39:45;14.70;71.20
46754;DHT22;32500;50.620;3.400;2023-04-15T08:42:15;14.70;71.00
46754;DHT22;32500;50.620;3.400;2023-04-15T08:44:42;14.70;71.30
46754;DHT22;32500;50.620;3.400;2023-04-15T08:47:12;14.80;71.50
46754;DHT22;32500;50.620;3.400;2023-04-15T08:49:40;14.80;71.20
46754;DHT22;32500;50.620;3.400;2023-04-15T08:52:06;14.80;71.50
46754;DHT22;32500;50.620;3.400;2023-04-15T08:54:34;14.80;71.40
46754;DHT22;32500;50.620;3.400;2023-04-15T08:57:00;14.80;71.70
46754;DHT22;32500;50.620;3.400;2023-04-15T08:59:29;14.90;71.90
46754;DHT22;32500;50.620;3.400;2023-04-15T09:01:56;14.90;71.90
46754;DHT22;32500;50.620;3.400;2023-04-15T09:04:23;14.90;71.80
46754;DHT22;32500;50.620;3.400;2023-04-15T09:06:48;14.90;71.90
46754;DHT22;32500;50.620;3.400;2023-04-15T09:09:14;14.90;71.90
46754;DHT22;32500;50.620;3.400;2023-04-15T09:11:40;14.90;71.80
46754;DHT22;32500;50.620;3.400;2023-04-15T09:14:06;14.90;72.00
46754;DHT22;32500;50.620;3.400;2023-04-15T09:16:59;14.90;72.10
46754;DHT22;32500;50.620;3.400;2023-04-15T09:19:25;14.90;72.00
46754;DHT22;32500;50.620;3.400;2023-04-15T09:21:55;14.90;71.60
46754;DHT22;32500;50.620;3.400;2023-04-15T09:24:22;14.90;71.70
46754;DHT22;32500;50.620;3.400;2023-04-15T09:26:51;15.00;71.60
46754;DHT22;32500;50.620;3.400;2023-04-15T09:29:18;15.00;72.40
46754;DHT22;32500;50.620;3.400;2023-04-15T09:31:44;15.00;71.60
46754;DHT22;32500;50.620;3.400;2023-04-15T09:34:10;15.00;71.70
46754;DHT22;32500;50.620;3.400;2023-04-15T09:36:53;15.00;71.50
46754;DHT22;32500;50.620;3.400;2023-04-15T09:39:19;15.00;71.70
46754;DHT22;32500;50.620;3.400;2023-04-15T09:41:45;15.00;71.40
46754;DHT22;32500;50.620;3.400;2023-04-15T09:44:25;15.00;71.80
46754;DHT22;32500;50.620;3.400;2023-04-15T09:46:51;15.00;71.60
46754;DHT22;32500;50.620;3.400;2023-04-15T09:49:17;15.10;71.80
46754;DHT22;32500;50.620;3.400;2023-04-15T09:51:43;15.10;71.50
46754;DHT22;32500;50.620;3.400;2023-04-15T09:54:09;15.10;71.80
46754;DHT22;32500;50.620;3.400;2023-04-15T09:56:38;15.10;71.70
46754;DHT22;32500;50.620;3.400;2023-04-15T09:59:09;15.10;71.20
46754;DHT22;32500;50.620;3.400;2023-04-15T10:01:35;15.10;71.70
46754;DHT22;32500;50.620;3.400;2023-04-15T10:04:03;15.10;71.50
46754;DHT22;32500;50.620;3.400;2023-04-15T10:06:29;15.20;71.50
46754;DHT22;32500;50.620;3.400;2023-04-15T10:08:56;15.20;71.70
46754;DHT22;32500;50.620;3.400;2023-04-15T10:11:22;15.20;71.60
46754;DHT22;32500;50.620;3.400;2023-04-15T10:13:49;15.20;71.80
46754;DHT22;32500;50.620;3.400;2023-04-15T10:16:18;15.20;71.80
46754;DHT22;32500;50.620;3.400;2023-04-15T10:18:46;15.20;72.60
46754;DHT22;32500;50.620;3.400;2023-04-15T10:21:13;15.20;73.00
46754;DHT22;32500;50.620;3.400;2023-04-15T10:23:44;15.30;73.10
46754;DHT22;32500;50.620;3.400;2023-04-15T10:26:11;15.30;73.40
46754;DHT22;32500;50.620;3.400;2023-04-15T10:28:39;15.40;73.40
46754;DHT22;32500;50.620;3.400;2023-04-15T10:31:05;15.40;73.20
46754;DHT22;32500;50.620;3.400;2023-04-15T10:33:32;15.40;73.30
46754;DHT22;32500;50.620;3.400;2023-04-15T10:35:59;15.40;73.50
46754;DHT22;32500;50.620;3.400;2023-04-15T10:38:37;15.40;73.50
46754;DHT22;32500;50.620;3.400;2023-04-15T10:48:49;15.50;74.00
46754;DHT22;32500;50.620;3.400;2023-04-15T10:51:15;15.50;74.20
46754;DHT22;32500;50.620;3.400;2023-04-15T10:53:42;15.50;74.30
46754;DHT22;32500;50.620;3.400;2023-04-15T10:56:09;15.50;74.30
46754;DHT22;32500;50.620;3.400;2023-04-15T10:58:42;15.60;74.60
46754;DHT22;32500;50.620;3.400;2023-04-15T11:01:08;15.60;74.90
46754;DHT22;32500;50.620;3.400;2023-04-15T11:03:38;15.70;75.10
46754;DHT22;32500;50.620;3.400;2023-04-15T11:06:06;15.70;75.00
46754;DHT22;32500;50.620;3.400;2023-04-15T11:08:57;15.70;75.90
46754;DHT22;32500;50.620;3.400;2023-04-15T11:14:27;15.70;74.80
46754;DHT22;32500;50.620;3.400;2023-04-15T11:16:52;15.70;74.70
46754;DHT22;32500;50.620;3.400;2023-04-15T11:19:18;15.70;75.00
46754;DHT22;32500;50.620;3.400;2023-04-15T11:21:44;15.80;75.10
46754;DHT22;32500;50.620;3.400;2023-04-15T11:24:09;15.80;75.00
46754;DHT22;32500;50.620;3.400;2023-04-15T11:26:35;15.70;75.00
46754;DHT22;32500;50.620;3.400;2023-04-15T11:29:01;15.70;75.10
46754;DHT22;32500;50.620;3.400;2023-04-15T11:31:27;15.70;75.00
46754;DHT22;32500;50.620;3.400;2023-04-15T11:33:59;15.70;75.00
46754;DHT22;32500;50.620;3.400;2023-04-15T11:36:28;15.70;74.90
46754;DHT22;32500;50.620;3.400;2023-04-15T11:38:54;15.70;75.00
46754;DHT22;32500;50.620;3.400;2023-04-15T11:41:21;15.70;74.80
46754;DHT22;32500;50.620;3.400;2023-04-15T11:43:47;15.70;74.70
46754;DHT22;32500;50.620;3.400;2023-04-15T11:46:12;15.70;74.60
46754;DHT22;32500;50.620;3.400;2023-04-15T11:48:42;15.80;74.80
46754;DHT22;32500;50.620;3.400;2023-04-15T11:51:08;15.80;75.50
46754;DHT22;32500;50.620;3.400;2023-04-15T11:53:42;15.80;74.60
46754;DHT22;32500;50.620;3.400;2023-04-15T11:56:09;15.80;74.40
46754;DHT22;32500;50.620;3.400;2023-04-15T11:58:36;15.80;74.40
46754;DHT22;32500;50.620;3.400;2023-04-15T12:01:03;15.80;74.30
46754;DHT22;32500;50.620;3.400;2023-04-15T12:03:44;15.80;74.40
46754;DHT22;32500;50.620;3.400;2023-04-15T12:06:15;15.80;74.30
46754;DHT22;32500;50.620;3.400;2023-04-15T12:11:30;15.90;74.10
46754;DHT22;32500;50.620;3.400;2023-04-15T12:16:30;15.90;73.70
46754;DHT22;32500;50.620;3.400;2023-04-15T12:18:57;15.90;73.40
46754;DHT22;32500;50.620;3.400;2023-04-15T12:21:31;15.90;73.40
46754;DHT22;32500;50.620;3.400;2023-04-15T12:24:01;15.90;73.30
46754;DHT22;32500;50.620;3.400;2023-04-15T12:26:30;15.90;73.20
46754;DHT22;32500;50.620;3.400;2023-04-15T12:29:04;15.90;73.10
46754;DHT22;32500;50.620;3.400;2023-04-15T12:31:30;16.00;73.00
46754;DHT22;32500;50.620;3.400;2023-04-15T12:33:59;16.00;73.60
46754;DHT22;32500;50.620;3.400;2023-04-15T12:36:26;15.90;72.80
46754;DHT22;32500;50.620;3.400;2023-04-15T12:38:51;16.00;72.80
46754;DHT22;32500;50.620;3.400;2023-04-15T12:41:17;15.90;72.60
46754;DHT22;32500;50.620;3.400;2023-04-15T12:43:44;16.00;72.50
46754;DHT22;32500;50.620;3.400;2023-04-15T12:46:11;16.00;72.10
46754;DHT22;32500;50.620;3.400;2023-04-15T12:48:37;15.90;72.00
46754;DHT22;32500;50.620;3.400;2023-04-15T12:51:03;15.90;72.10
46754;DHT22;32500;50.620;3.400;2023-04-15T12:53:28;16.00;72.00
46754;DHT22;32500;50.620;3.400;2023-04-15T12:55:54;16.00;71.80
46754;DHT22;32500;50.620;3.400;2023-04-15T12:58:20;16.00;71.80
46754;DHT22;32500;50.620;3.400;2023-04-15T13:00:46;16.00;71.90
46754;DHT22;32500;50.620;3.400;2023-04-15T13:03:13;15.90;71.80
46754;DHT22;32500;50.620;3.400;2023-04-15T13:05:39;15.90;71.80
46754;DHT22;32500;50.620;3.400;2023-04-15T13:08:05;16.00;71.80
46754;DHT22;32500;50.620;3.400;2023-04-15T13:10:31;16.00;71.80
46754;DHT22;32500;50.620;3.400;2023-04-15T13:12:57;16.00;71.60
46754;DHT22;32500;50.620;3.400;2023-04-15T13:15:23;16.00;71.50
46754;DHT22;32500;50.620;3.400;2023-04-15T13:17:50;16.00;71.40
46754;DHT22;32500;50.620;3.400;2023-04-15T13:20:16;16.00;71.30
46754;DHT22;32500;50.620;3.400;2023-04-15T13:22:41;16.00;71.30
46754;DHT22;32500;50.620;3.400;2023-04-15T13:25:07;16.00;71.90
46754;DHT22;32500;50.620;3.400;2023-04-15T13:27:33;16.00;70.10
46754;DHT22;32500;50.620;3.400;2023-04-15T13:29:59;16.00;69.90
46754;DHT22;32500;50.620;3.400;2023-04-15T13:32:25;16.00;69.80
46754;DHT22;32500;50.620;3.400;2023-04-15T13:34:51;16.00;70.10
46754;DHT22;32500;50.620;3.400;2023-04-15T13:37:16;16.10;69.90
46754;DHT22;32500;50.620;3.400;2023-04-15T13:39:42;16.10;69.60
46754;DHT22;32500;50.620;3.400;2023-04-15T13:42:08;16.00;69.30
46754;DHT22;32500;50.620;3.400;2023-04-15T13:44:34;16.00;69.70
46754;DHT22;32500;50.620;3.400;2023-04-15T13:47:00;16.00;69.80
46754;DHT22;32500;50.620;3.400;2023-04-15T13:49:25;16.00;69.80
46754;DHT22;32500;50.620;3.400;2023-04-15T13:51:51;16.00;69.40
46754;DHT22;32500;50.620;3.400;2023-04-15T13:54:17;16.10;69.10
46754;DHT22;32500;50.620;3.400;2023-04-15T13:56:42;16.10;69.20
46754;DHT22;32500;50.620;3.400;2023-04-15T13:59:08;16.10;69.20
46754;DHT22;32500;50.620;3.400;2023-04-15T14:01:34;16.10;69.10
46754;DHT22;32500;50.620;3.400;2023-04-15T14:04:01;16.10;69.10
46754;DHT22;32500;50.620;3.400;2023-04-15T14:06:27;16.10;69.00
46754;DHT22;32500;50.620;3.400;2023-04-15T14:08:55;16.10;69.20
46754;DHT22;32500;50.620;3.400;2023-04-15T14:11:21;16.10;69.10
46754;DHT22;32500;50.620;3.400;2023-04-15T14:13:47;16.10;69.10
46754;DHT22;32500;50.620;3.400;2023-04-15T14:16:12;16.10;68.30
46754;DHT22;32500;50.620;3.400;2023-04-15T14:18:39;16.10;67.40
46754;DHT22;32500;50.620;3.400;2023-04-15T14:21:05;16.10;67.00
46754;DHT22;32500;50.620;3.400;2023-04-15T14:23:31;16.20;66.30
46754;DHT22;32500;50.620;3.400;2023-04-15T14:25:57;16.20;66.60
46754;DHT22;32500;50.620;3.400;2023-04-15T14:28:23;16.20;67.00
46754;DHT22;32500;50.620;3.400;2023-04-15T14:30:49;16.20;67.10
46754;DHT22;32500;50.620;3.400;2023-04-15T14:33:14;16.20;67.30
46754;DHT22;32500;50.620;3.400;2023-04-15T14:35:40;16.20;67.30
46754;DHT22;32500;50.620;3.400;2023-04-15T14:38:06;16.20;66.50
46754;DHT22;32500;50.620;3.400;2023-04-15T14:40:35;16.20;66.10
46754;DHT22;32500;50.620;3.400;2023-04-15T14:43:01;16.20;66.20
46754;DHT22;32500;50.620;3.400;2023-04-15T14:45:27;16.20;67.00
46754;DHT22;32500;50.620;3.400;2023-04-15T14:47:52;16.20;67.60
46754;DHT22;32500;50.620;3.400;2023-04-15T14:50:18;16.20;68.10
46754;DHT22;32500;50.620;3.400;2023-04-15T14:52:44;16.20;68.40
46754;DHT22;32500;50.620;3.400;2023-04-15T14:55:11;16.20;68.70
46754;DHT22;32500;50.620;3.400;2023-04-15T14:57:37;16.20;68.90
46754;DHT22;32500;50.620;3.400;2023-04-15T15:00:03;16.20;69.00
46754;DHT22;32500;50.620;3.400;2023-04-15T15:02:29;16.20;69.10
46754;DHT22;32500;50.620;3.400;2023-04-15T15:04:56;16.20;69.30
46754;DHT22;32500;50.620;3.400;2023-04-15T15:07:22;16.20;69.30
46754;DHT22;32500;50.620;3.400;2023-04-15T15:09:48;16.20;69.60
46754;DHT22;32500;50.620;3.400;2023-04-15T15:12:14;16.20;69.70
46754;DHT22;32500;50.620;3.400;2023-04-15T15:14:40;16.20;69.90
46754;DHT22;32500;50.620;3.400;2023-04-15T15:17:06;16.20;70.20
46754;DHT22;32500;50.620;3.400;2023-04-15T15:19:32;16.20;70.40
46754;DHT22;32500;50.620;3.400;2023-04-15T15:21:57;16.30;70.70
46754;DHT22;32500;50.620;3.400;2023-04-15T15:24:23;16.20;71.10
46754;DHT22;32500;50.620;3.400;2023-04-15T15:26:48;16.30;72.20
46754;DHT22;32500;50.620;3.400;2023-04-15T15:29:14;16.30;72.00
46754;DHT22;32500;50.620;3.400;2023-04-15T15:31:40;16.40;72.60
46754;DHT22;32500;50.620;3.400;2023-04-15T15:34:06;16.40;72.90
46754;DHT22;32500;50.620;3.400;2023-04-15T15:36:31;16.40;73.50
46754;DHT22;32500;50.620;3.400;2023-04-15T15:38:57;16.40;74.10
46754;DHT22;32500;50.620;3.400;2023-04-15T15:41:24;16.40;74.50